Time;durP1;ratioP1;P1;durP2;ratioP2;P2;SDS_P1;SDS_P2;PMS_P1;PMS_P2;Temp;Humidity;BMP_temperature;BMP_pressure;BME280_temperature;BME280_humidity;BME280_pressure;Samples;Min_cycle;Max_cycle;Signal;HPM_P1;HPM_P2
2023/12/04 00:01:16;;;;;;;26.30;9.57;;;;;;;-6.79;100.00;96539.31;5077537;28;20207;-69
2023/12/04 00:03:43;;;;;;;23.10;10.67;;;;;;;-6.65;100.00;96534.44;5078420;28;20222;-69
2023/12/04 00:06:11;;;;;;;22.40;9.93;;;;;;;-6.58;100.00;96526.38;5077407;28;20966;-69
2023/12/04 00:08:38;;;;;;;27.80;11.00;;;;;;;-6.58;100.00;96521.25;5078269;28;20201;-69
2023/12/04 00:11:05;;;;;;;26.90;9.83;;;;;;;-6.54;100.00;96512.56;5078632;28;20592;-69
2023/12/04 00:13:31;;;;;;;28.07;10.00;;;;;;;-6.55;100.00;96511.69;5078217;28;20206;-70
2023/12/04 00:16:00;;;;;;;29.77;12.10;;;;;;;-6.43;100.00;96512.88;5077609;28;20226;-69
2023/12/04 00:20:59;;;;;;;32.87;12.03;;;;;;;-6.45;100.00;96491.63;5053100;27;20589;-68
2023/12/04 00:23:26;;;;;;;26.87;9.77;;;;;;;-6.49;100.00;96493.50;5053180;28;20210;-68
2023/12/04 00:25:53;;;;;;;25.20;10.33;;;;;;;-6.52;100.00;96487.66;5052789;28;20214;-68
2023/12/04 00:28:19;;;;;;;22.97;9.07;;;;;;;-6.47;100.00;96480.59;5052799;28;20207;-68
2023/12/04 00:30:45;;;;;;;23.03;9.40;;;;;;;-6.43;100.00;96485.53;5052633;28;20745;-68
2023/12/04 00:33:12;;;;;;;21.90;9.37;;;;;;;-6.45;100.00;96486.50;5051737;28;20217;-68
2023/12/04 00:35:38;;;;;;;25.77;11.03;;;;;;;-6.61;100.00;96485.53;5051912;28;20669;-68
2023/12/04 00:38:06;;;;;;;25.23;8.80;;;;;;;-6.82;100.00;96491.63;5052169;28;20204;-68
2023/12/04 00:40:34;;;;;;;21.20;9.23;;;;;;;-6.61;100.00;96481.22;5051894;28;20227;-68
2023/12/04 00:43:00;;;;;;;27.47;9.77;;;;;;;-6.69;100.00;96482.50;5051819;28;20206;-68
2023/12/04 00:45:27;;;;;;;20.33;9.33;;;;;;;-6.65;100.00;96480.63;5052688;28;20210;-68
2023/12/04 00:47:53;;;;;;;22.33;9.50;;;;;;;-6.63;100.00;96482.22;5051367;28;20210;-68
2023/12/04 00:50:20;;;;;;;22.30;9.20;;;;;;;-6.59;100.00;96478.63;5051742;28;20221;-68
2023/12/04 00:52:46;;;;;;;22.50;9.17;;;;;;;-6.53;100.00;96475.75;5053418;28;20672;-68
2023/12/04 00:55:14;;;;;;;23.00;9.53;;;;;;;-6.40;100.00;96474.28;5051214;28;21001;-68
2023/12/04 00:57:41;;;;;;;27.73;10.03;;;;;;;-6.48;100.00;96471.25;5051140;28;20213;-68
2023/12/04 01:00:09;;;;;;;21.03;8.57;;;;;;;-6.39;100.00;96470.81;5051646;28;20263;-68
2023/12/04 01:02:35;;;;;;;26.30;10.93;;;;;;;-6.61;100.00;96465.03;5051358;28;20210;-68
2023/12/04 01:05:02;;;;;;;25.60;10.33;;;;;;;-6.62;100.00;96465.91;5050613;28;20209;-68
2023/12/04 01:07:29;;;;;;;22.53;10.87;;;;;;;-6.57;100.00;96459.72;5051585;28;20204;-68
2023/12/04 01:09:55;;;;;;;16.87;8.80;;;;;;;-6.44;100.00;96462.50;5051751;28;20243;-68
2023/12/04 01:12:23;;;;;;;17.17;8.00;;;;;;;-6.46;100.00;96454.09;5051426;28;20728;-68
2023/12/04 01:14:50;;;;;;;22.67;10.13;;;;;;;-6.56;100.00;96452.84;5051805;28;20588;-68
2023/12/04 01:17:16;;;;;;;31.13;10.70;;;;;;;-6.70;100.00;96449.25;5050435;28;20672;-68
2023/12/04 01:19:43;;;;;;;26.07;10.57;;;;;;;-6.84;100.00;96439.63;5051621;28;21112;-68
2023/12/04 01:22:09;;;;;;;26.43;9.80;;;;;;;-6.67;100.00;96434.56;5051162;28;20326;-68
2023/12/04 01:24:36;;;;;;;26.83;9.90;;;;;;;-6.60;100.00;96435.94;5051774;28;20217;-68
2023/12/04 01:27:02;;;;;;;25.33;10.40;;;;;;;-6.60;100.00;96428.25;5050125;28;20321;-68
2023/12/04 01:29:31;;;;;;;20.93;9.23;;;;;;;-6.50;100.00;96432.06;5051900;28;20219;-68
2023/12/04 01:31:58;;;;;;;19.37;9.37;;;;;;;-6.53;100.00;96427.91;5039350;28;20208;-68
2023/12/04 01:34:24;;;;;;;21.07;8.40;;;;;;;-6.58;100.00;96429.00;5038235;28;20204;-68
2023/12/04 01:36:51;;;;;;;17.03;8.03;;;;;;;-6.84;100.00;96421.69;5038395;28;20204;-68
2023/12/04 01:39:17;;;;;;;20.17;7.87;;;;;;;-6.83;100.00;96418.25;5037619;28;20227;-68
2023/12/04 01:41:44;;;;;;;19.20;8.47;;;;;;;-6.82;100.00;96419.91;5037832;28;20202;-68
2023/12/04 01:44:10;;;;;;;19.67;8.50;;;;;;;-6.73;100.00;96421.19;5037139;28;20242;-68
2023/12/04 01:46:39;;;;;;;22.57;8.80;;;;;;;-6.66;100.00;96410.59;5037831;28;20205;-68
2023/12/04 01:49:06;;;;;;;20.03;9.97;;;;;;;-6.87;100.00;96411.59;5036217;28;20238;-68
2023/12/04 01:51:33;;;;;;;24.23;9.67;;;;;;;-6.83;100.00;96417.41;5038314;28;20216;-68
2023/12/04 01:54:01;;;;;;;24.13;9.10;;;;;;;-6.64;100.00;96428.47;5037085;28;20216;-68
2023/12/04 01:56:28;;;;;;;31.67;12.77;;;;;;;-6.78;100.00;96423.97;5037315;28;20579;-68
2023/12/04 01:58:54;;;;;;;31.67;12.97;;;;;;;-6.76;100.00;96418.78;5036874;28;20597;-68
2023/12/04 02:01:21;;;;;;;24.13;9.67;;;;;;;-6.89;100.00;96410.81;5038021;28;20226;-68
2023/12/04 02:03:50;;;;;;;22.80;10.63;;;;;;;-6.81;100.00;96407.91;5036937;28;20247;-68
2023/12/04 02:06:19;;;;;;;29.93;11.57;;;;;;;-6.81;100.00;96411.31;5037020;28;20207;-68
2023/12/04 02:08:47;;;;;;;24.70;10.80;;;;;;;-6.86;100.00;96407.28;5036710;28;20274;-68
2023/12/04 02:11:14;;;;;;;21.90;9.27;;;;;;;-6.99;100.00;96401.88;5036563;28;20203;-68
2023/12/04 02:13:40;;;;;;;18.87;9.47;;;;;;;-7.12;100.00;96405.91;5036924;28;20580;-68
2023/12/04 02:16:10;;;;;;;18.27;9.10;;;;;;;-6.89;100.00;96402.31;5037332;28;20206;-68
2023/12/04 02:18:37;;;;;;;18.30;7.33;;;;;;;-7.02;100.00;96402.03;5036168;28;20652;-68
2023/12/04 02:21:06;;;;;;;24.53;10.83;;;;;;;-7.01;100.00;96406.25;5036832;28;20225;-68
2023/12/04 02:23:33;;;;;;;16.43;7.50;;;;;;;-7.16;100.00;96414.63;5036735;28;20206;-68
2023/12/04 02:26:06;;;;;;;14.30;7.60;;;;;;;-7.17;100.00;96412.94;5037314;28;20211;-68
2023/12/04 02:28:36;;;;;;;20.27;7.33;;;;;;;-7.22;100.00;96428.59;5036073;28;20928;-68
2023/12/04 02:31:05;;;;;;;12.10;6.17;;;;;;;-7.28;100.00;96426.31;5037299;28;20213;-68
2023/12/04 02:33:33;;;;;;;20.13;8.10;;;;;;;-7.38;100.00;96423.31;5036790;28;21319;-68
2023/12/04 02:36:01;;;;;;;14.53;7.23;;;;;;;-7.29;100.00;96416.94;5037098;28;20201;-68
2023/12/04 02:38:28;;;;;;;19.90;8.87;;;;;;;-7.40;100.00;96411.50;5036136;28;20198;-70
2023/12/04 02:40:56;;;;;;;18.03;8.07;;;;;;;-7.49;100.00;96399.91;5037294;28;20229;-71
2023/12/04 02:43:24;;;;;;;20.37;9.33;;;;;;;-7.33;100.00;96394.97;5034335;28;20681;-68
2023/12/04 02:45:50;;;;;;;16.03;7.53;;;;;;;-7.36;100.00;96395.91;5037550;28;20206;-68
2023/12/04 02:48:17;;;;;;;19.77;7.90;;;;;;;-7.22;100.00;96387.66;5036416;28;20580;-68
2023/12/04 02:50:43;;;;;;;18.53;8.43;;;;;;;-7.21;100.00;96379.91;5037727;28;20217;-68
2023/12/04 02:53:10;;;;;;;18.77;8.17;;;;;;;-7.14;100.00;96379.56;5036332;28;20209;-71
2023/12/04 02:55:36;;;;;;;20.63;7.87;;;;;;;-7.07;100.00;96382.66;5037554;28;20205;-71
2023/12/04 02:58:03;;;;;;;16.67;7.87;;;;;;;-7.05;100.00;96378.28;5036548;28;20203;-70
2023/12/04 03:00:30;;;;;;;18.27;7.33;;;;;;;-6.85;100.00;96379.03;5035909;28;20227;-71
2023/12/04 03:02:57;;;;;;;21.40;9.07;;;;;;;-6.94;100.00;96374.34;5036786;28;20216;-71
2023/12/04 03:05:24;;;;;;;17.67;7.97;;;;;;;-6.92;100.00;96376.88;5036314;28;20267;-71
2023/12/04 03:07:50;;;;;;;14.43;7.03;;;;;;;-6.99;100.00;96381.41;5036016;28;20220;-68
2023/12/04 03:10:17;;;;;;;17.93;7.00;;;;;;;-6.98;100.00;96377.94;5035637;28;20659;-68
2023/12/04 03:12:43;;;;;;;19.27;9.27;;;;;;;-6.96;100.00;96377.88;5037142;28;20209;-68
2023/12/04 03:15:11;;;;;;;24.13;9.77;;;;;;;-6.90;100.00;96377.59;5035552;28;20212;-70
2023/12/04 03:17:39;;;;;;;15.00;6.70;;;;;;;-6.82;100.00;96361.00;5035125;28;20204;-70
2023/12/04 03:20:08;;;;;;;21.70;8.50;;;;;;;-6.77;100.00;96365.88;5034940;28;20222;-71
2023/12/04 03:22:35;;;;;;;17.80;7.40;;;;;;;-6.81;100.00;96362.66;5036808;28;20202;-71
2023/12/04 03:25:01;;;;;;;19.00;9.60;;;;;;;-6.80;100.00;96366.03;5036398;28;20208;-71
2023/12/04 03:27:28;;;;;;;19.90;7.90;;;;;;;-6.80;100.00;96366.84;5034643;28;20211;-71
2023/12/04 03:29:54;;;;;;;17.97;8.10;;;;;;;-6.79;100.00;96368.53;5036020;28;20611;-71
2023/12/04 03:32:20;;;;;;;20.00;8.73;;;;;;;-6.78;100.00;96357.38;5035760;28;20211;-70
2023/12/04 03:34:48;;;;;;;27.07;9.60;;;;;;;-6.66;100.00;96351.69;5035331;28;21166;-70
2023/12/04 03:37:15;;;;;;;20.40;8.13;;;;;;;-6.66;100.00;96350.88;5035236;28;20210;-71
2023/12/04 03:39:41;;;;;;;25.03;9.67;;;;;;;-6.64;100.00;96349.88;5035680;28;20226;-71
2023/12/04 03:42:08;;;;;;;21.13;8.53;;;;;;;-6.60;100.00;96341.97;5035473;28;20209;-71
2023/12/04 03:44:34;;;;;;;24.00;10.20;;;;;;;-6.60;100.00;96333.47;5035103;28;20668;-70
2023/12/04 03:47:01;;;;;;;18.17;7.77;;;;;;;-6.66;100.00;96327.81;5035950;28;20208;-71
2023/12/04 03:49:27;;;;;;;19.10;9.27;;;;;;;-6.62;100.00;96327.56;5034172;28;20833;-71
2023/12/04 03:51:55;;;;;;;22.70;8.27;;;;;;;-6.50;100.00;96319.31;5036004;28;20209;-71
2023/12/04 03:54:22;;;;;;;23.07;8.27;;;;;;;-6.59;100.00;96318.00;5034900;28;20454;-68
2023/12/04 03:59:22;;;;;;;22.97;9.33;;;;;;;-6.51;100.00;96313.34;5032216;28;20225;-68
2023/12/04 04:01:48;;;;;;;19.83;7.67;;;;;;;-6.56;100.00;96311.91;5035070;28;20239;-68
2023/12/04 04:04:15;;;;;;;25.67;9.43;;;;;;;-6.53;100.00;96311.75;5035532;28;20203;-68
2023/12/04 04:06:41;;;;;;;20.80;9.07;;;;;;;-6.44;100.00;96319.00;5035084;28;20231;-68
2023/12/04 04:09:09;;;;;;;15.77;8.27;;;;;;;-6.32;100.00;96314.09;5034823;28;20229;-68
2023/12/04 04:11:36;;;;;;;21.20;9.30;;;;;;;-6.49;100.00;96311.53;5034625;28;20196;-68
2023/12/04 04:14:02;;;;;;;19.00;8.03;;;;;;;-6.82;100.00;96311.50;5035244;28;20787;-68
2023/12/04 04:16:29;;;;;;;21.13;9.53;;;;;;;-6.89;100.00;96300.69;5034837;28;20202;-68
2023/12/04 04:18:55;;;;;;;15.93;6.27;;;;;;;-6.81;100.00;96292.66;5034965;28;20240;-68
2023/12/04 04:21:22;;;;;;;23.00;8.37;;;;;;;-6.67;100.00;96291.09;5034505;28;20222;-68
2023/12/04 04:23:48;;;;;;;16.23;7.97;;;;;;;-6.65;100.00;96293.59;5034663;28;20662;-68
2023/12/04 04:26:16;;;;;;;19.47;7.87;;;;;;;-6.53;100.00;96273.31;5034883;28;20204;-68
2023/12/04 04:28:43;;;;;;;17.33;7.27;;;;;;;-6.51;100.00;96281.78;5034201;28;20233;-68
2023/12/04 04:31:09;;;;;;;20.73;8.07;;;;;;;-6.57;100.00;96276.94;5034738;28;20219;-68
2023/12/04 04:33:36;;;;;;;21.23;7.17;;;;;;;-6.56;100.00;96283.72;5034752;28;20907;-71
2023/12/04 04:36:03;;;;;;;19.60;8.17;;;;;;;-6.51;100.00;96284.34;5036251;28;20419;-71
2023/12/04 04:38:30;;;;;;;20.50;8.40;;;;;;;-6.59;100.00;96284.69;5033900;28;20227;-71
2023/12/04 04:40:56;;;;;;;21.97;8.73;;;;;;;-6.55;100.00;96280.28;5035241;28;20330;-71
2023/12/04 04:43:24;;;;;;;26.33;8.40;;;;;;;-6.41;100.00;96275.31;5033917;28;20214;-71
2023/12/04 04:45:51;;;;;;;24.47;8.40;;;;;;;-6.50;100.00;96270.63;5035276;28;20216;-71
2023/12/04 04:48:17;;;;;;;22.87;8.20;;;;;;;-6.52;100.00;96265.59;5034042;28;20640;-71
2023/12/04 04:50:44;;;;;;;18.93;7.27;;;;;;;-6.47;100.00;96273.03;5035195;28;20256;-71
2023/12/04 04:53:10;;;;;;;21.17;7.83;;;;;;;-6.51;100.00;96281.78;5034304;28;20203;-68
2023/12/04 04:55:37;;;;;;;24.33;10.03;;;;;;;-6.45;100.00;96268.66;5034561;28;20221;-68
2023/12/04 04:58:03;;;;;;;21.57;8.37;;;;;;;-6.48;100.00;96273.94;5034369;28;21187;-68
2023/12/04 05:00:31;;;;;;;22.17;9.47;;;;;;;-6.33;100.00;96270.63;5034728;28;20233;-68
2023/12/04 05:02:58;;;;;;;22.50;9.63;;;;;;;-6.43;100.00;96269.41;5034601;28;20205;-68
2023/12/04 05:05:24;;;;;;;22.60;7.10;;;;;;;-6.54;100.00;96277.63;5034511;28;20206;-71
2023/12/04 05:07:51;;;;;;;21.70;8.10;;;;;;;-6.51;100.00;96274.91;5038485;28;20297;-71
2023/12/04 05:10:17;;;;;;;18.17;7.63;;;;;;;-6.62;100.00;96269.50;5037876;28;20225;-71
2023/12/04 05:12:44;;;;;;;19.97;8.33;;;;;;;-6.61;100.00;96270.31;5038175;28;20207;-68
2023/12/04 05:15:11;;;;;;;16.07;6.97;;;;;;;-6.62;100.00;96258.41;5038650;28;20210;-68
2023/12/04 05:17:38;;;;;;;20.00;7.33;;;;;;;-6.47;100.00;96262.78;5037356;28;20199;-68
2023/12/04 05:20:07;;;;;;;20.27;7.30;;;;;;;-6.55;100.00;96258.03;5038377;28;20240;-68
2023/12/04 05:22:35;;;;;;;22.73;8.03;;;;;;;-6.57;100.00;96261.56;5037511;28;20199;-68
2023/12/04 05:25:02;;;;;;;24.30;9.73;;;;;;;-6.53;100.00;96257.94;5038721;28;20207;-68
2023/12/04 05:27:29;;;;;;;20.87;8.33;;;;;;;-6.48;100.00;96261.13;5035588;28;20292;-68
2023/12/04 05:29:55;;;;;;;25.57;9.77;;;;;;;-6.53;100.00;96257.94;5038257;28;20239;-68
2023/12/04 05:32:22;;;;;;;30.00;10.23;;;;;;;-6.53;100.00;96260.50;5038225;28;20204;-68
2023/12/04 05:34:49;;;;;;;22.50;8.37;;;;;;;-6.41;100.00;96252.22;5037776;28;20207;-68
2023/12/04 05:37:16;;;;;;;19.93;8.07;;;;;;;-6.62;100.00;96254.13;5037504;28;20208;-68
2023/12/04 05:39:43;;;;;;;24.00;8.23;;;;;;;-6.54;100.00;96246.88;5037556;28;20220;-68
2023/12/04 05:42:09;;;;;;;21.80;9.07;;;;;;;-6.44;100.00;96247.25;5038320;28;20226;-68
2023/12/04 05:44:36;;;;;;;22.17;8.37;;;;;;;-6.40;100.00;96246.19;5037075;28;21022;-68
2023/12/04 05:47:02;;;;;;;25.60;11.20;;;;;;;-6.39;100.00;96247.84;5039075;28;20214;-68
2023/12/04 05:49:30;;;;;;;21.33;7.90;;;;;;;-6.50;100.00;96253.50;5036614;28;20227;-68
2023/12/04 05:51:58;;;;;;;23.00;10.00;;;;;;;-6.36;100.00;96260.53;5037475;28;20256;-68
2023/12/04 05:54:25;;;;;;;19.80;9.03;;;;;;;-6.49;100.00;96259.44;5037286;28;20207;-68
2023/12/04 05:56:51;;;;;;;17.97;6.90;;;;;;;-6.48;100.00;96256.00;5036054;28;20741;-68
2023/12/04 05:59:18;;;;;;;24.47;9.20;;;;;;;-6.54;100.00;96246.06;5036237;28;20215;-68
2023/12/04 06:01:45;;;;;;;24.17;9.10;;;;;;;-6.60;100.00;96242.03;5039086;28;20223;-68
2023/12/04 06:04:11;;;;;;;21.47;8.23;;;;;;;-6.54;100.00;96230.69;5038400;28;20206;-69
2023/12/04 06:06:38;;;;;;;24.87;9.37;;;;;;;-6.61;100.00;96226.75;5038045;28;20690;-68
2023/12/04 06:09:06;;;;;;;29.17;10.30;;;;;;;-6.53;100.00;96211.81;5036341;28;20254;-68
2023/12/04 06:11:33;;;;;;;23.27;8.33;;;;;;;-6.59;100.00;96217.28;5036029;28;20235;-68
2023/12/04 06:13:59;;;;;;;21.93;8.40;;;;;;;-6.63;100.00;96214.03;5037022;28;20212;-68
2023/12/04 06:16:26;;;;;;;20.43;8.37;;;;;;;-6.64;100.00;96216.66;5036173;28;20201;-68
2023/12/04 06:18:52;;;;;;;23.77;9.17;;;;;;;-6.59;100.00;96214.72;5037221;28;20235;-68
2023/12/04 06:21:19;;;;;;;22.27;10.67;;;;;;;-6.76;100.00;96206.19;5035554;28;20333;-68
2023/12/04 06:23:46;;;;;;;18.67;8.10;;;;;;;-6.75;100.00;96203.53;5046313;28;20195;-69
2023/12/04 06:26:15;;;;;;;26.00;9.10;;;;;;;-6.65;100.00;96206.50;5046408;28;20207;-69
2023/12/04 06:28:42;;;;;;;26.00;9.73;;;;;;;-6.85;100.00;96204.09;5036671;28;20253;-69
2023/12/04 06:31:10;;;;;;;19.23;7.70;;;;;;;-6.69;100.00;96213.50;5037982;28;20196;-69
2023/12/04 06:33:37;;;;;;;21.80;8.43;;;;;;;-6.65;100.00;96211.63;5037544;28;20229;-69
2023/12/04 06:36:07;;;;;;;22.63;7.73;;;;;;;-6.58;100.00;96212.06;5037760;28;20214;-68
2023/12/04 06:38:34;;;;;;;19.67;8.23;;;;;;;-6.60;100.00;96218.16;5037113;28;20663;-69
2023/12/04 06:41:01;;;;;;;23.33;9.23;;;;;;;-6.80;100.00;96215.75;5034902;28;20971;-68
2023/12/04 06:43:30;;;;;;;26.13;10.13;;;;;;;-6.72;100.00;96210.25;5035873;28;20216;-68
2023/12/04 06:45:58;;;;;;;18.50;7.93;;;;;;;-6.86;100.00;96195.59;5035229;28;20222;-70
2023/12/04 06:48:25;;;;;;;20.67;8.03;;;;;;;-6.82;100.00;96189.41;5035828;28;20286;-70
2023/12/04 06:50:52;;;;;;;18.13;7.30;;;;;;;-6.89;100.00;96187.22;5035531;28;20210;-70
2023/12/04 06:53:18;;;;;;;25.77;9.70;;;;;;;-6.88;100.00;96187.13;5034946;28;20202;-70
2023/12/04 06:55:45;;;;;;;20.00;8.43;;;;;;;-6.84;100.00;96175.81;5035576;28;20203;-70
2023/12/04 06:58:11;;;;;;;22.83;9.00;;;;;;;-6.77;100.00;96174.63;5035756;28;20208;-70
2023/12/04 07:00:39;;;;;;;26.00;9.30;;;;;;;-6.66;100.00;96167.22;5035178;28;20276;-70
2023/12/04 07:03:06;;;;;;;30.93;9.90;;;;;;;-6.76;100.00;96176.28;5035907;28;20208;-70
2023/12/04 07:05:32;;;;;;;23.90;9.63;;;;;;;-6.76;100.00;96183.97;5035839;28;20210;-70
2023/12/04 07:07:59;;;;;;;33.03;11.57;;;;;;;-6.75;100.00;96182.25;5035427;28;20210;-70
2023/12/04 07:10:25;;;;;;;33.60;11.13;;;;;;;-6.55;100.00;96175.22;5036319;28;20343;-70
2023/12/04 07:12:52;;;;;;;23.50;10.27;;;;;;;-6.86;100.00;96179.38;5034926;28;20207;-70
2023/12/04 07:15:18;;;;;;;32.47;12.83;;;;;;;-6.68;100.00;96173.34;5034848;28;20202;-68
2023/12/04 07:17:46;;;;;;;47.30;14.97;;;;;;;-6.48;100.00;96167.16;5035821;28;20219;-68
2023/12/04 07:20:13;;;;;;;20.90;8.97;;;;;;;-6.77;100.00;96158.41;5034660;28;20235;-68
2023/12/04 07:22:39;;;;;;;24.50;8.97;;;;;;;-6.69;100.00;96149.47;5031765;28;20358;-68
2023/12/04 07:25:07;;;;;;;26.30;9.87;;;;;;;-6.57;100.00;96147.13;5033319;28;20584;-69
2023/12/04 07:27:34;;;;;;;22.43;9.93;;;;;;;-6.47;100.00;96144.91;5032915;28;20211;-69
2023/12/04 07:30:01;;;;;;;18.80;7.20;;;;;;;-6.33;100.00;96135.59;5032352;28;20228;-68
2023/12/04 07:32:27;;;;;;;24.63;9.97;;;;;;;-6.34;100.00;96130.53;5034917;28;20208;-69
2023/12/04 07:34:55;;;;;;;25.80;9.73;;;;;;;-6.13;100.00;96129.44;5034954;28;20207;-68
2023/12/04 07:37:22;;;;;;;35.73;12.73;;;;;;;-6.11;100.00;96130.16;5033458;28;20351;-69
2023/12/04 07:39:48;;;;;;;29.53;10.23;;;;;;;-6.04;100.00;96134.09;5036079;28;21270;-68
2023/12/04 07:42:15;;;;;;;28.43;11.53;;;;;;;-6.11;100.00;96136.13;5035599;28;20246;-68
2023/12/04 07:44:41;;;;;;;26.07;9.70;;;;;;;-6.06;100.00;96136.69;5035532;28;20202;-68
2023/12/04 07:47:08;;;;;;;26.73;11.27;;;;;;;-6.00;100.00;96138.94;5035153;28;20667;-68
2023/12/04 07:49:34;;;;;;;29.40;9.53;;;;;;;-5.97;100.00;96131.94;5035216;28;20234;-68
2023/12/04 07:52:02;;;;;;;24.70;9.93;;;;;;;-5.70;100.00;96135.53;5035902;28;20292;-68
2023/12/04 07:54:29;;;;;;;27.83;9.60;;;;;;;-5.78;100.00;96137.75;5034760;28;20218;-68
2023/12/04 07:56:55;;;;;;;24.47;9.83;;;;;;;-5.77;100.00;96149.63;5035803;28;20203;-68
2023/12/04 07:59:22;;;;;;;29.20;10.27;;;;;;;-5.75;100.00;96142.66;5034550;28;20500;-68
2023/12/04 08:01:48;;;;;;;21.40;9.23;;;;;;;-5.65;100.00;96148.09;5035812;28;20239;-69
2023/12/04 08:04:15;;;;;;;23.67;9.00;;;;;;;-5.59;100.00;96151.16;5035152;28;20330;-68
2023/12/04 08:06:41;;;;;;;30.23;11.27;;;;;;;-5.74;100.00;96156.31;5035556;28;20208;-68
2023/12/04 08:09:10;;;;;;;29.43;11.47;;;;;;;-5.48;100.00;96155.75;5034575;28;20597;-69
2023/12/04 08:11:36;;;;;;;29.00;11.87;;;;;;;-5.89;100.00;96160.56;5034869;28;20203;-68
2023/12/04 08:14:03;;;;;;;23.43;10.03;;;;;;;-5.88;100.00;96161.38;5035796;28;20264;-68
2023/12/04 08:16:29;;;;;;;31.00;12.37;;;;;;;-5.78;100.00;96160.81;5035657;28;20207;-68
2023/12/04 08:18:56;;;;;;;26.03;10.87;;;;;;;-5.80;100.00;96161.81;5033866;28;20238;-69
2023/12/04 08:21:23;;;;;;;23.70;9.27;;;;;;;-5.97;100.00;96160.16;5035046;28;20215;-68
2023/12/04 08:23:49;;;;;;;27.57;11.27;;;;;;;-5.82;100.00;96155.94;5034773;28;20214;-68
2023/12/04 08:26:24;;;;;;;27.20;12.20;;;;;;;-5.85;100.00;96159.47;5034766;28;20207;-68
2023/12/04 08:28:50;;;;;;;23.10;8.37;;;;;;;-5.60;100.00;96149.53;5034471;28;20232;-68
2023/12/04 08:31:17;;;;;;;27.33;10.63;;;;;;;-5.74;100.00;96139.19;5035170;28;20730;-68
2023/12/04 08:33:43;;;;;;;24.37;10.10;;;;;;;-5.34;100.00;96136.09;5034346;28;20998;-68
2023/12/04 08:36:11;;;;;;;26.30;10.40;;;;;;;-5.16;100.00;96127.34;5034984;28;20670;-68
2023/12/04 08:38:38;;;;;;;31.83;12.53;;;;;;;-5.18;100.00;96119.75;5034807;28;20223;-69
2023/12/04 08:41:05;;;;;;;26.20;9.87;;;;;;;-5.07;100.00;96114.00;5035510;28;20648;-68
2023/12/04 08:43:33;;;;;;;27.73;10.60;;;;;;;-4.84;100.00;96108.38;5039057;28;20225;-68
2023/12/04 08:46:00;;;;;;;27.00;10.33;;;;;;;-4.95;100.00;96100.44;5039086;28;20207;-68
2023/12/04 08:48:26;;;;;;;22.60;9.53;;;;;;;-4.63;100.00;96098.50;5038193;28;20201;-68
2023/12/04 08:50:53;;;;;;;26.67;10.67;;;;;;;-4.59;100.00;96089.69;5039101;28;20213;-68
2023/12/04 08:53:19;;;;;;;25.30;9.07;;;;;;;-4.46;100.00;96084.63;5039102;28;20208;-69
2023/12/04 08:55:46;;;;;;;27.47;10.37;;;;;;;-4.41;100.00;96086.00;5038651;28;20938;-68
2023/12/04 08:58:13;;;;;;;25.37;11.53;;;;;;;-4.39;100.00;96080.78;5038349;28;20222;-68
2023/12/04 09:00:42;;;;;;;28.57;11.03;;;;;;;-4.22;100.00;96078.84;5038694;28;20632;-69
2023/12/04 09:03:09;;;;;;;23.30;9.83;;;;;;;-4.34;100.00;96077.03;5038351;28;20305;-69
2023/12/04 09:05:35;;;;;;;25.83;11.17;;;;;;;-4.29;100.00;96079.31;5037923;28;20202;-68
2023/12/04 09:08:02;;;;;;;21.90;9.90;;;;;;;-4.06;100.00;96094.97;5037852;28;20208;-68
2023/12/04 09:10:29;;;;;;;24.23;9.83;;;;;;;-4.16;100.00;96104.22;5038175;28;20229;-68
2023/12/04 09:12:55;;;;;;;24.10;9.57;;;;;;;-4.36;100.00;96096.84;5038684;28;20567;-68
2023/12/04 09:15:22;;;;;;;27.33;9.63;;;;;;;-4.34;100.00;96084.75;5038649;28;20209;-69
2023/12/04 09:17:49;;;;;;;25.43;10.90;;;;;;;-4.02;100.00;96087.00;5037516;28;20761;-68
2023/12/04 09:20:16;;;;;;;27.13;9.67;;;;;;;-4.09;100.00;96079.75;5037527;28;20385;-68
2023/12/04 09:22:43;;;;;;;21.60;9.60;;;;;;;-3.97;100.00;96089.28;5038211;28;20270;-69
2023/12/04 09:25:10;;;;;;;25.90;10.13;;;;;;;-4.10;100.00;96088.38;5038540;28;20216;-69
2023/12/04 09:27:37;;;;;;;29.37;11.33;;;;;;;-4.34;100.00;96089.88;5038113;28;20212;-68
2023/12/04 09:30:04;;;;;;;26.47;10.43;;;;;;;-4.04;100.00;96082.88;5037317;28;20715;-68
2023/12/04 09:32:31;;;;;;;31.60;11.73;;;;;;;-4.03;100.00;96069.09;5038347;28;20198;-68
2023/12/04 09:34:58;;;;;;;28.70;10.73;;;;;;;-3.88;100.00;96068.97;5038461;28;20236;-68
2023/12/04 09:37:25;;;;;;;28.00;11.43;;;;;;;-3.87;100.00;96064.63;5037386;28;20684;-69
2023/12/04 09:39:53;;;;;;;28.60;10.23;;;;;;;-3.94;100.00;96065.94;5038155;28;20225;-69
2023/12/04 09:42:20;;;;;;;21.80;9.83;;;;;;;-4.06;100.00;96084.69;5038410;28;20225;-69
2023/12/04 09:44:49;;;;;;;22.87;10.40;;;;;;;-3.98;100.00;96085.06;5038234;28;20217;-68
2023/12/04 09:47:18;;;;;;;22.30;10.50;;;;;;;-4.24;100.00;96088.38;5037005;28;20893;-68
2023/12/04 09:49:46;;;;;;;27.77;10.57;;;;;;;-4.67;100.00;96075.59;5038414;28;20225;-68
2023/12/04 09:52:15;;;;;;;26.37;10.27;;;;;;;-4.50;100.00;96072.88;5037019;28;20212;-68
2023/12/04 09:54:42;;;;;;;22.10;10.00;;;;;;;-4.36;100.00;96063.41;5036980;28;20564;-68
2023/12/04 09:57:09;;;;;;;25.97;10.93;;;;;;;-4.33;100.00;96073.50;5036887;28;20213;-69
2023/12/04 09:59:36;;;;;;;23.97;10.47;;;;;;;-4.30;100.00;96075.06;5037938;28;20254;-69
2023/12/04 10:02:03;;;;;;;28.50;11.67;;;;;;;-4.25;100.00;96079.03;5037294;28;20236;-69
2023/12/04 10:04:30;;;;;;;26.03;10.57;;;;;;;-4.61;100.00;96064.97;5037894;28;20216;-68
2023/12/04 10:06:56;;;;;;;25.57;10.90;;;;;;;-4.26;100.00;96061.09;5037892;28;20217;-68
2023/12/04 10:09:24;;;;;;;22.13;9.73;;;;;;;-4.22;100.00;96059.09;5036913;28;20226;-68
2023/12/04 10:11:52;;;;;;;22.43;9.37;;;;;;;-4.55;100.00;96052.59;5037625;28;20593;-68
2023/12/04 10:14:20;;;;;;;23.60;10.93;;;;;;;-4.00;100.00;96043.97;5036454;28;20476;-68
2023/12/04 10:16:48;;;;;;;26.30;11.10;;;;;;;-3.86;100.00;96035.41;5037742;28;20212;-68
2023/12/04 10:19:20;;;;;;;33.13;12.23;;;;;;;-3.51;100.00;96024.53;5037268;28;20237;-69
2023/12/04 10:21:48;;;;;;;21.57;10.20;;;;;;;-3.52;100.00;96028.84;5037532;28;20204;-68
2023/12/04 10:24:31;;;;;;;25.10;11.43;;;;;;;-3.01;100.00;96021.13;5037319;28;20213;-69
2023/12/04 10:26:58;;;;;;;27.23;11.67;;;;;;;-3.22;100.00;96014.00;5037005;28;20205;-68
2023/12/04 10:29:29;;;;;;;22.57;9.50;;;;;;;-2.83;100.00;96012.16;5037375;28;20887;-68
2023/12/04 10:31:55;;;;;;;25.30;10.57;;;;;;;-2.45;97.74;96009.59;5037664;28;20213;-68
2023/12/04 10:34:25;;;;;;;18.23;7.67;;;;;;;-2.55;96.56;96005.97;5037012;28;20236;-69
2023/12/04 10:36:52;;;;;;;16.40;7.33;;;;;;;-2.69;97.09;96003.50;5036697;28;20671;-68
2023/12/04 10:39:19;;;;;;;20.57;8.00;;;;;;;-2.50;95.95;96003.91;5036259;28;20642;-68
2023/12/04 10:42:00;;;;;;;17.80;7.40;;;;;;;-2.44;96.81;95988.00;5037137;28;20213;-69
2023/12/04 10:44:27;;;;;;;20.23;7.77;;;;;;;-2.21;96.20;95977.75;5036510;28;20497;-68
2023/12/04 10:46:57;;;;;;;15.90;7.67;;;;;;;-1.94;92.05;95975.81;5036780;28;20213;-68
2023/12/04 10:49:27;;;;;;;11.13;7.17;;;;;;;-2.24;92.76;95973.63;5036651;28;20221;-69
2023/12/04 10:51:54;;;;;;;15.43;6.60;;;;;;;-2.28;94.75;95979.09;5036743;28;20202;-69
2023/12/04 10:54:21;;;;;;;16.63;6.57;;;;;;;-2.68;95.44;95981.97;5035997;28;20208;-69
2023/12/04 10:56:51;;;;;;;16.43;7.17;;;;;;;-2.98;96.54;95984.00;5035924;28;20213;-68
2023/12/04 10:59:26;;;;;;;20.20;8.13;;;;;;;-3.38;100.00;95976.47;5035704;28;20267;-68
2023/12/04 11:01:56;;;;;;;12.67;6.33;;;;;;;-3.35;100.00;95964.19;5036908;28;20636;-68
2023/12/04 11:04:27;;;;;;;15.90;7.20;;;;;;;-3.33;100.00;95953.81;5035086;28;20198;-68
2023/12/04 11:06:55;;;;;;;21.73;8.87;;;;;;;-3.15;100.00;95952.59;5036598;28;20209;-69
2023/12/04 11:09:26;;;;;;;15.80;7.37;;;;;;;-2.83;100.00;95939.97;5035358;28;20231;-68
2023/12/04 11:11:59;;;;;;;20.00;7.60;;;;;;;-3.37;100.00;95936.91;5036426;28;20620;-68
2023/12/04 11:14:30;;;;;;;19.00;6.93;;;;;;;-2.63;100.00;95918.00;5035489;28;20230;-68
2023/12/04 11:17:02;;;;;;;12.60;6.27;;;;;;;-2.25;100.00;95902.31;5036052;28;20203;-68
2023/12/04 11:19:33;;;;;;;17.17;7.27;;;;;;;-2.11;100.00;95899.56;5034602;28;20245;-68